Time;durP1;ratioP1;P1;durP2;ratioP2;P2;SDS_P1;SDS_P2;PMS_P1;PMS_P2;Temp;Humidity;BMP_temperature;BMP_pressure;BME280_temperature;BME280_humidity;BME280_pressure;Samples;Min_cycle;Max_cycle;Signal;HPM_P1;HPM_P2
2022/09/21 00:00:11;;;;;;;8.43;4.63;;;;;;;10.92;100.00;102437.25;5073937;28;20367;-74
2022/09/21 00:02:36;;;;;;;10.52;4.65;;;;;;;10.87;100.00;102445.06;5071801;28;20024;-75
2022/09/21 00:05:02;;;;;;;6.72;4.03;;;;;;;10.87;100.00;102437.81;5073819;28;20455;-75
2022/09/21 00:07:27;;;;;;;5.85;3.83;;;;;;;10.83;100.00;102436.50;5079830;28;20478;-74
2022/09/21 00:09:53;;;;;;;7.65;4.97;;;;;;;10.79;100.00;102438.75;5092582;28;20027;-73
2022/09/21 00:12:19;;;;;;;7.30;4.38;;;;;;;10.75;100.00;102434.72;5093784;28;20046;-73
2022/09/21 00:14:44;;;;;;;6.35;4.20;;;;;;;10.70;100.00;102436.31;5094107;28;20024;-73
2022/09/21 00:17:09;;;;;;;9.93;4.78;;;;;;;10.68;100.00;102439.19;5093734;28;20534;-73
2022/09/21 00:19:35;;;;;;;11.85;4.53;;;;;;;10.64;100.00;102437.88;5093976;28;20408;-72
2022/09/21 00:22:00;;;;;;;7.53;4.38;;;;;;;10.59;100.00;102445.72;5077560;28;20025;-74
2022/09/21 00:24:26;;;;;;;6.95;4.45;;;;;;;10.59;100.00;102448.44;5073674;28;20094;-74
2022/09/21 00:26:52;;;;;;;7.18;4.30;;;;;;;10.55;100.00;102444.41;5073572;28;20025;-72
2022/09/21 00:29:17;;;;;;;9.70;4.45;;;;;;;10.56;100.00;102441.53;5073265;28;20025;-74
2022/09/21 00:31:42;;;;;;;8.20;4.25;;;;;;;10.55;100.00;102445.28;5073245;28;20031;-75
2022/09/21 00:34:08;;;;;;;9.55;4.47;;;;;;;10.52;100.00;102436.66;5072805;28;20048;-75
2022/09/21 00:36:34;;;;;;;8.60;4.75;;;;;;;10.52;100.00;102444.78;5071616;28;20024;-74
2022/09/21 00:39:00;;;;;;;7.53;4.30;;;;;;;10.46;100.00;102443.66;5071792;28;20020;-73
2022/09/21 00:41:29;;;;;;;12.25;4.97;;;;;;;10.37;100.00;102442.06;5072046;28;20033;-75
2022/09/21 00:44:26;;;;;;;7.80;4.40;;;;;;;10.41;100.00;102451.50;5073534;28;20080;-74
2022/09/21 00:46:55;;;;;;;9.43;4.22;;;;;;;10.37;100.00;102451.03;5073249;28;20024;-74
2022/09/21 00:49:22;;;;;;;5.85;4.35;;;;;;;10.33;100.00;102447.00;5072817;28;20029;-72
2022/09/21 00:51:48;;;;;;;8.98;4.82;;;;;;;10.36;100.00;102452.06;5071941;28;20020;-73
2022/09/21 00:54:21;;;;;;;7.28;4.40;;;;;;;10.30;100.00;102447.34;5071424;28;20443;-76
2022/09/21 00:56:47;;;;;;;6.82;4.32;;;;;;;10.30;100.00;102452.75;5073344;28;20379;-73
2022/09/21 00:59:15;;;;;;;7.15;4.50;;;;;;;10.27;100.00;102450.44;5072079;28;20028;-73
2022/09/21 01:01:41;;;;;;;10.52;4.53;;;;;;;10.29;100.00;102443.78;5070450;28;20024;-73
2022/09/21 01:04:08;;;;;;;7.78;4.53;;;;;;;10.26;100.00;102448.72;5072367;28;20036;-75
2022/09/21 01:06:36;;;;;;;7.90;4.90;;;;;;;10.24;100.00;102443.50;5072631;28;20486;-72
2022/09/21 01:09:02;;;;;;;6.93;4.40;;;;;;;10.21;100.00;102448.47;5073008;28;20024;-73
2022/09/21 01:11:37;;;;;;;7.55;4.28;;;;;;;10.22;100.00;102447.41;5072890;28;20410;-74
2022/09/21 01:14:41;;;;;;;10.30;4.68;;;;;;;10.30;100.00;102450.06;5072494;28;20025;-73
2022/09/21 01:17:52;;;;;;;6.65;4.35;;;;;;;10.32;100.00;102448.00;5072532;28;20066;-74
2022/09/21 01:20:45;;;;;;;5.70;4.25;;;;;;;10.28;100.00;102447.53;5072496;28;20040;-74
2022/09/21 01:23:16;;;;;;;9.15;3.95;;;;;;;10.28;100.00;102444.84;5072497;28;20034;-75
2022/09/21 01:26:00;;;;;;;9.65;4.20;;;;;;;10.23;100.00;102447.22;5071383;28;20455;-74
2022/09/21 01:28:53;;;;;;;9.07;4.72;;;;;;;10.25;100.00;102447.03;5073015;28;20046;-74
2022/09/21 01:31:24;;;;;;;8.82;4.57;;;;;;;10.25;100.00;102455.16;5072089;28;20545;-75
2022/09/21 01:33:56;;;;;;;8.95;4.45;;;;;;;10.25;100.00;102444.34;5071100;28;20047;-75
2022/09/21 01:36:27;;;;;;;9.15;4.47;;;;;;;10.23;100.00;102446.41;5072678;28;20103;-72
2022/09/21 01:38:59;;;;;;;11.07;4.82;;;;;;;10.25;100.00;102447.03;5072680;28;20052;-72
2022/09/21 01:41:27;;;;;;;10.20;4.80;;;;;;;10.26;100.00;102451.44;5072405;28;20463;-73
2022/09/21 01:43:56;;;;;;;9.00;4.68;;;;;;;10.24;100.00;102453.50;5072477;28;20511;-75
2022/09/21 01:46:27;;;;;;;6.60;4.32;;;;;;;10.22;100.00;102442.88;5070053;28;20438;-73
2022/09/21 01:48:59;;;;;;;6.78;3.95;;;;;;;10.27;100.00;102437.72;5092577;28;20059;-74
2022/09/21 01:51:27;;;;;;;6.43;4.45;;;;;;;10.18;100.00;102443.41;5092623;28;20066;-74
2022/09/21 01:54:04;;;;;;;8.05;4.55;;;;;;;10.20;100.00;102438.66;5092477;28;20081;-74
2022/09/21 01:57:31;;;;;;;7.68;4.10;;;;;;;10.26;100.00;102446.84;5091360;28;20031;-73
2022/09/21 01:59:59;;;;;;;8.38;4.50;;;;;;;10.20;100.00;102439.47;5079553;28;20127;-73
2022/09/21 02:02:59;;;;;;;10.23;4.20;;;;;;;10.23;100.00;102441.81;5073242;28;20581;-75
2022/09/21 02:05:28;;;;;;;6.10;4.40;;;;;;;10.17;100.00;102436.31;5070752;28;20123;-75
2022/09/21 02:07:55;;;;;;;8.27;4.35;;;;;;;10.17;100.00;102436.31;5072278;28;20060;-73
2022/09/21 02:10:25;;;;;;;5.93;4.13;;;;;;;10.16;100.00;102440.03;5072032;28;20040;-73
2022/09/21 02:12:58;;;;;;;7.18;4.00;;;;;;;10.10;100.00;102442.47;5070910;28;20422;-75
2022/09/21 02:15:31;;;;;;;7.63;4.15;;;;;;;10.08;100.00;102444.50;5071873;28;20171;-72
2022/09/21 02:18:12;;;;;;;9.20;4.57;;;;;;;10.11;100.00;102443.28;5074034;28;20063;-73
2022/09/21 02:20:46;;;;;;;7.15;4.60;;;;;;;10.08;100.00;102441.81;5076019;28;20033;-73
2022/09/21 02:23:22;;;;;;;7.78;4.20;;;;;;;10.08;100.00;102438.25;5076054;28;20158;-72
2022/09/21 02:26:01;;;;;;;9.57;4.20;;;;;;;10.07;100.00;102437.41;5075735;28;20021;-72
2022/09/21 02:28:42;;;;;;;8.43;3.95;;;;;;;9.99;100.00;102442.03;5076136;28;20064;-74
2022/09/21 02:31:44;;;;;;;6.13;4.10;;;;;;;10.00;100.00;102444.56;5075664;28;20028;-73
2022/09/21 02:34:19;;;;;;;13.05;4.10;;;;;;;9.93;100.00;102446.31;5073961;28;20106;-75
2022/09/21 02:36:55;;;;;;;8.60;3.95;;;;;;;9.87;100.00;102441.63;5075659;28;20406;-73
2022/09/21 02:39:32;;;;;;;7.32;3.90;;;;;;;9.84;100.00;102439.28;5075408;28;20036;-73
2022/09/21 02:42:07;;;;;;;11.45;3.97;;;;;;;9.84;100.00;102436.59;5076246;28;20388;-75
2022/09/21 02:44:41;;;;;;;6.60;3.55;;;;;;;9.81;100.00;102447.75;5074226;28;20475;-74
2022/09/21 02:47:18;;;;;;;5.70;3.90;;;;;;;9.80;100.00;102440.66;5074887;28;20035;-74
2022/09/21 02:49:50;;;;;;;5.63;3.63;;;;;;;9.73;100.00;102438.69;5075466;28;20027;-75
2022/09/21 02:52:18;;;;;;;11.73;3.55;;;;;;;9.71;100.00;102440.75;5074558;28;20032;-74
2022/09/21 02:54:49;;;;;;;7.60;3.80;;;;;;;9.68;100.00;102438.41;5075385;28;20027;-74
2022/09/21 02:57:17;;;;;;;6.90;4.40;;;;;;;9.66;100.00;102437.75;5075039;28;20444;-75
2022/09/21 02:59:42;;;;;;;5.28;3.80;;;;;;;9.66;100.00;102434.19;5074951;28;20495;-75
2022/09/21 03:02:13;;;;;;;5.93;3.65;;;;;;;9.62;100.00;102433.72;5072155;28;20089;-74
2022/09/21 03:04:40;;;;;;;4.85;3.58;;;;;;;9.66;100.00;102445.84;5074458;28;20451;-73
2022/09/21 03:07:07;;;;;;;12.27;3.80;;;;;;;9.61;100.00;102442.00;5073914;28;20524;-73
2022/09/21 03:09:32;;;;;;;8.38;3.80;;;;;;;9.60;100.00;102443.00;5075302;28;20370;-74
2022/09/21 03:11:57;;;;;;;11.52;4.32;;;;;;;9.59;100.00;102439.47;5075177;28;20116;-75
2022/09/21 03:14:23;;;;;;;9.90;3.47;;;;;;;9.63;100.00;102445.34;5073514;28;20368;-73
2022/09/21 03:16:48;;;;;;;8.63;3.63;;;;;;;9.60;100.00;102446.53;5074603;28;20027;-74
2022/09/21 03:19:14;;;;;;;5.65;3.55;;;;;;;9.60;100.00;102441.13;5074354;28;20025;-73
2022/09/21 03:21:40;;;;;;;10.45;3.50;;;;;;;9.53;100.00;102432.09;5073519;28;20035;-73
2022/09/21 03:24:05;;;;;;;8.45;3.65;;;;;;;9.52;100.00;102442.03;5074621;28;20028;-74
2022/09/21 03:26:31;;;;;;;9.75;4.07;;;;;;;9.46;100.00;102441.94;5074715;28;20465;-73
2022/09/21 03:28:57;;;;;;;11.43;4.00;;;;;;;9.42;100.00;102443.28;5074318;28;20031;-73
2022/09/21 03:31:23;;;;;;;10.73;3.95;;;;;;;9.37;100.00;102441.97;5074514;28;20032;-75
2022/09/21 03:33:48;;;;;;;10.60;3.53;;;;;;;9.36;100.00;102447.53;5073006;28;20072;-75
2022/09/21 03:36:13;;;;;;;5.03;3.00;;;;;;;9.37;100.00;102449.22;5073096;28;20462;-73
2022/09/21 03:38:39;;;;;;;8.38;3.80;;;;;;;9.35;100.00;102454.81;5074506;28;20031;-74
2022/09/21 03:41:04;;;;;;;5.93;3.30;;;;;;;9.29;100.00;102452.81;5074767;28;20523;-74
2022/09/21 03:43:30;;;;;;;6.38;3.13;;;;;;;9.25;100.00;102459.59;5072898;28;20456;-74
2022/09/21 03:45:56;;;;;;;11.32;3.58;;;;;;;9.28;100.00;102459.22;5074452;28;20032;-75
2022/09/21 03:48:22;;;;;;;9.93;3.25;;;;;;;9.25;100.00;102454.19;5073814;28;20028;-74
2022/09/21 03:50:47;;;;;;;4.90;2.88;;;;;;;9.22;100.00;102460.81;5074359;28;20040;-73
2022/09/21 03:53:13;;;;;;;6.72;3.30;;;;;;;9.25;100.00;102469.56;5073797;28;20031;-72
2022/09/21 03:55:39;;;;;;;6.20;3.30;;;;;;;9.20;100.00;102467.41;5072829;28;20027;-73
2022/09/21 03:58:04;;;;;;;5.05;3.38;;;;;;;9.23;100.00;102461.63;5074211;28;20028;-73
2022/09/21 04:00:30;;;;;;;3.70;3.40;;;;;;;9.22;100.00;102462.66;5071761;28;20127;-73
2022/09/21 04:02:55;;;;;;;7.32;3.25;;;;;;;9.17;100.00;102462.34;5073525;28;20452;-73
2022/09/21 04:05:21;;;;;;;6.80;3.17;;;;;;;9.15;100.00;102467.91;5073492;28;20054;-74
2022/09/21 04:07:46;;;;;;;5.53;3.50;;;;;;;9.16;100.00;102469.63;5073976;28;20028;-73
2022/09/21 04:10:18;;;;;;;7.00;3.05;;;;;;;9.16;100.00;102466.06;5073678;28;20058;-75
2022/09/21 04:12:45;;;;;;;6.75;3.55;;;;;;;9.15;100.00;102458.97;5073618;28;20085;-74
2022/09/21 04:15:13;;;;;;;6.43;3.60;;;;;;;9.10;100.00;102464.06;5073554;28;20024;-75
2022/09/21 04:17:38;;;;;;;7.72;3.47;;;;;;;9.12;100.00;102470.13;5075742;28;20043;-73
2022/09/21 04:20:05;;;;;;;8.90;3.00;;;;;;;9.10;100.00;102461.34;5072487;28;20025;-74
2022/09/21 04:22:30;;;;;;;3.67;2.72;;;;;;;9.05;100.00;102462.72;5073662;28;20028;-75
2022/09/21 04:24:56;;;;;;;5.65;3.45;;;;;;;9.09;100.00;102465.06;5073361;28;20040;-75
2022/09/21 04:27:21;;;;;;;6.97;3.35;;;;;;;9.05;100.00;102462.72;5072001;28;20111;-74
2022/09/21 04:29:47;;;;;;;8.07;3.42;;;;;;;9.00;100.00;102457.00;5073551;28;20016;-74
2022/09/21 04:32:13;;;;;;;7.15;3.55;;;;;;;9.01;100.00;102464.09;5076066;28;20034;-74
2022/09/21 04:34:38;;;;;;;5.75;3.22;;;;;;;8.97;100.00;102473.56;5072932;28;20040;-73
2022/09/21 04:37:07;;;;;;;7.32;3.65;;;;;;;8.95;100.00;102464.81;5073436;28;20446;-73
2022/09/21 04:39:32;;;;;;;7.43;3.40;;;;;;;8.93;100.00;102468.69;5072437;28;20414;-75
2022/09/21 04:41:58;;;;;;;6.80;3.13;;;;;;;8.92;100.00;102467.81;5073084;28;20028;-74
2022/09/21 04:44:23;;;;;;;13.00;4.30;;;;;;;8.92;100.00;102469.69;5073028;28;20064;-73
2022/09/21 04:46:49;;;;;;;5.25;3.28;;;;;;;8.88;100.00;102471.91;5072808;28;20032;-75
2022/09/21 04:49:15;;;;;;;9.48;3.85;;;;;;;8.86;100.00;102476.63;5072742;28;20028;-72
2022/09/21 04:51:40;;;;;;;8.02;4.10;;;;;;;8.82;100.00;102469.91;5073196;28;20615;-74
2022/09/21 04:54:06;;;;;;;7.57;3.40;;;;;;;8.77;100.00;102473.13;5071722;28;20440;-75
2022/09/21 04:56:32;;;;;;;8.48;3.78;;;;;;;8.82;100.00;102478.00;5072805;28;20024;-74
2022/09/21 04:58:57;;;;;;;8.60;3.90;;;;;;;8.81;100.00;102470.91;5073019;28;20024;-74
2022/09/21 05:01:23;;;;;;;9.38;4.00;;;;;;;8.81;100.00;102471.75;5070019;28;20021;-74
2022/09/21 05:03:48;;;;;;;6.45;3.70;;;;;;;8.79;100.00;102471.09;5072794;28;20047;-75
2022/09/21 05:06:13;;;;;;;9.93;3.83;;;;;;;8.81;100.00;102479.00;5071443;28;20017;-75
2022/09/21 05:11:23;;;;;;;6.65;3.60;;;;;;;8.81;100.00;102474.44;5072673;28;20193;-73
2022/09/21 05:13:49;;;;;;;11.32;4.00;;;;;;;8.79;100.00;102478.34;5072622;28;20459;-75
2022/09/21 05:16:16;;;;;;;9.77;3.70;;;;;;;8.76;100.00;102478.69;5072467;28;20021;-74
2022/09/21 05:18:42;;;;;;;6.47;4.13;;;;;;;8.81;100.00;102479.00;5074888;28;20088;-74
2022/09/21 05:21:10;;;;;;;10.05;4.10;;;;;;;8.78;100.00;102480.19;5072557;28;20028;-73
2022/09/21 05:23:35;;;;;;;5.80;3.53;;;;;;;8.79;100.00;102483.75;5072609;28;20072;-73
2022/09/21 05:26:00;;;;;;;8.93;3.97;;;;;;;8.80;100.00;102482.72;5072662;28;20053;-72
2022/09/21 05:28:27;;;;;;;12.05;4.22;;;;;;;8.78;100.00;102480.19;5072109;28;20434;-75
2022/09/21 05:31:17;;;;;;;6.53;4.47;;;;;;;8.84;100.00;102482.19;5072539;28;20029;-73
2022/09/21 05:33:51;;;;;;;8.05;4.05;;;;;;;8.80;100.00;102493.50;5072015;28;20036;-74
2022/09/21 05:36:35;;;;;;;11.07;4.63;;;;;;;8.84;100.00;102492.16;5072362;28;20024;-72
2022/09/21 05:39:00;;;;;;;10.43;4.13;;;;;;;8.78;100.00;102493.69;5072106;28;20375;-74
2022/09/21 05:41:26;;;;;;;8.95;5.07;;;;;;;8.73;100.00;102496.06;5070935;28;20067;-74
2022/09/21 05:43:52;;;;;;;7.93;4.20;;;;;;;8.74;100.00;102499.59;5072523;28;20028;-73
2022/09/21 05:46:31;;;;;;;8.15;3.72;;;;;;;8.76;100.00;102505.69;5072181;28;20031;-75
2022/09/21 05:49:04;;;;;;;8.20;3.92;;;;;;;8.76;100.00;102503.00;5072770;28;20028;-74
2022/09/21 05:52:11;;;;;;;7.72;3.70;;;;;;;8.83;100.00;102501.25;5075276;28;20036;-75
2022/09/21 05:54:44;;;;;;;7.68;4.10;;;;;;;8.81;100.00;102500.59;5069208;28;20063;-73
2022/09/21 05:57:28;;;;;;;7.75;3.97;;;;;;;8.87;100.00;102499.91;5074979;28;20032;-74
2022/09/21 06:00:14;;;;;;;8.15;4.40;;;;;;;8.89;100.00;102505.97;5076288;28;20017;-72
2022/09/21 06:03:17;;;;;;;10.23;5.80;;;;;;;8.93;100.00;102510.03;5073768;28;20114;-75
2022/09/21 06:05:43;;;;;;;10.80;5.97;;;;;;;8.94;100.00;102506.31;5076246;28;20028;-75
2022/09/21 06:08:08;;;;;;;13.88;6.15;;;;;;;8.93;100.00;102506.50;5076301;28;20036;-75
2022/09/21 06:10:34;;;;;;;11.85;6.13;;;;;;;8.90;100.00;102513.06;5079115;28;20020;-73
2022/09/21 06:12:59;;;;;;;8.50;6.40;;;;;;;8.92;100.00;102518.28;5075786;28;20070;-73
2022/09/21 06:15:25;;;;;;;11.95;6.35;;;;;;;8.92;100.00;102521.00;5075702;28;20025;-73
2022/09/21 06:17:50;;;;;;;13.15;6.32;;;;;;;8.95;100.00;102518.81;5074619;28;20077;-72
2022/09/21 06:20:16;;;;;;;9.50;5.63;;;;;;;8.98;100.00;102520.31;5075945;28;20029;-74
2022/09/21 06:22:41;;;;;;;7.95;6.07;;;;;;;9.00;100.00;102519.13;5075932;28;20025;-72
2022/09/21 06:25:07;;;;;;;9.18;6.70;;;;;;;9.07;100.00;102521.94;5075339;28;20040;-72
2022/09/21 06:27:32;;;;;;;9.77;6.93;;;;;;;9.15;100.00;102523.78;5075911;28;20113;-74
2022/09/21 06:29:57;;;;;;;13.98;7.78;;;;;;;9.24;100.00;102522.75;5075736;28;20021;-72
2022/09/21 06:32:23;;;;;;;13.02;7.22;;;;;;;9.26;100.00;102522.59;5075549;28;20375;-75
2022/09/21 06:34:48;;;;;;;13.98;8.38;;;;;;;9.32;100.00;102522.72;5075194;28;20100;-72
2022/09/21 06:37:14;;;;;;;17.83;9.32;;;;;;;9.39;100.00;102526.41;5075690;28;20348;-72
2022/09/21 06:39:39;;;;;;;24.67;9.40;;;;;;;9.40;100.00;102522.69;5074808;28;20375;-73
2022/09/21 06:42:05;;;;;;;17.60;8.82;;;;;;;9.46;100.00;102525.69;5075595;28;20440;-72
2022/09/21 06:44:30;;;;;;;20.33;8.30;;;;;;;9.47;100.00;102530.91;5075254;28;20030;-74
2022/09/21 06:46:55;;;;;;;15.90;8.45;;;;;;;9.50;100.00;102521.63;5075722;28;20088;-72
2022/09/21 06:49:21;;;;;;;13.40;8.65;;;;;;;9.58;100.00;102524.28;5074854;28;20027;-72
2022/09/21 06:51:47;;;;;;;15.88;7.70;;;;;;;9.63;100.00;102521.91;5074170;28;20032;-74
2022/09/21 06:54:13;;;;;;;15.25;8.80;;;;;;;9.70;100.00;102527.41;5078751;28;20024;-73
2022/09/21 06:56:38;;;;;;;14.77;7.45;;;;;;;9.75;100.00;102523.19;5084777;28;20119;-74
2022/09/21 06:59:04;;;;;;;14.88;8.02;;;;;;;9.80;100.00;102525.34;5073778;28;20021;-73
2022/09/21 07:01:29;;;;;;;11.82;7.32;;;;;;;9.85;100.00;102516.69;5071135;28;20079;-73
2022/09/21 07:03:54;;;;;;;15.40;8.20;;;;;;;9.88;100.00;102524.44;5075211;28;20107;-73
2022/09/21 07:06:23;;;;;;;29.70;14.93;;;;;;;9.95;100.00;102528.13;5073476;28;20046;-75
2022/09/21 07:08:51;;;;;;;18.55;8.68;;;;;;;10.04;100.00;102532.44;5073801;28;20082;-73
2022/09/21 07:11:16;;;;;;;19.60;9.95;;;;;;;10.09;100.00;102538.16;5076812;28;20422;-77
2022/09/21 07:13:42;;;;;;;20.85;10.25;;;;;;;10.15;100.00;102530.34;5073579;28;20029;-72
2022/09/21 07:16:08;;;;;;;27.38;13.75;;;;;;;10.24;100.00;102526.56;5074682;28;20024;-73
2022/09/21 07:18:35;;;;;;;18.70;9.52;;;;;;;10.29;100.00;102532.25;5074429;28;20436;-72
2022/09/21 07:21:05;;;;;;;13.65;7.40;;;;;;;10.39;100.00;102526.63;5074989;28;20100;-72
2022/09/21 07:23:31;;;;;;;18.10;8.23;;;;;;;10.45;100.00;102526.72;5074375;28;20040;-72
2022/09/21 07:26:01;;;;;;;17.17;11.20;;;;;;;10.49;100.00;102529.06;5074109;28;20040;-72
2022/09/21 07:28:26;;;;;;;14.27;8.60;;;;;;;10.54;100.00;102526.66;5074584;28;20032;-72
2022/09/21 07:30:52;;;;;;;16.88;8.88;;;;;;;10.59;100.00;102525.06;5074468;28;20066;-73
2022/09/21 07:33:17;;;;;;;13.88;7.70;;;;;;;10.66;100.00;102527.03;5074203;28;20044;-73
2022/09/21 07:35:55;;;;;;;14.40;7.55;;;;;;;10.73;100.00;102528.00;5074106;28;20073;-71
2022/09/21 07:38:20;;;;;;;19.70;9.82;;;;;;;10.77;100.00;102523.91;5074312;28;20112;-72
2022/09/21 07:40:46;;;;;;;11.70;7.30;;;;;;;10.81;100.00;102520.63;5074708;28;20112;-70
2022/09/21 07:43:11;;;;;;;18.85;10.40;;;;;;;10.85;100.00;102520.25;5073437;28;20035;-70
2022/09/21 07:45:37;;;;;;;15.88;9.32;;;;;;;10.92;100.00;102522.03;5072711;28;20398;-71
2022/09/21 07:48:03;;;;;;;18.48;12.20;;;;;;;10.92;100.00;102521.19;5073137;28;20029;-70
2022/09/21 07:50:29;;;;;;;12.30;6.35;;;;;;;10.96;100.00;102517.06;5073884;28;20052;-73
2022/09/21 07:52:54;;;;;;;13.50;6.65;;;;;;;11.04;100.00;102519.69;5074083;28;20071;-73
2022/09/21 07:55:19;;;;;;;11.75;5.93;;;;;;;11.09;100.00;102519.13;5072571;28;20070;-73
2022/09/21 08:00:31;;;;;;;9.80;4.25;;;;;;;11.17;100.00;102510.91;5092518;28;20031;-72
2022/09/21 08:02:57;;;;;;;10.88;4.22;;;;;;;11.24;100.00;102517.25;5092585;28;20012;-73
2022/09/21 08:05:22;;;;;;;8.40;3.92;;;;;;;11.28;100.00;102515.84;5093048;28;20027;-73
2022/09/21 08:07:48;;;;;;;12.18;4.22;;;;;;;11.35;100.00;102515.94;5092929;28;20012;-73
2022/09/21 08:10:13;;;;;;;8.68;4.05;;;;;;;11.42;100.00;102511.44;5093907;28;20031;-73
2022/09/21 08:12:38;;;;;;;8.00;4.15;;;;;;;11.47;100.00;102509.00;5086842;28;20027;-72
2022/09/21 08:15:05;;;;;;;6.85;3.63;;;;;;;11.52;100.00;102511.16;5071471;28;20025;-73
2022/09/21 08:17:30;;;;;;;7.57;3.60;;;;;;;11.52;100.00;102498.41;5073259;28;20074;-72
2022/09/21 08:19:55;;;;;;;10.32;3.58;;;;;;;11.62;100.00;102508.94;5073566;28;20021;-73
2022/09/21 08:22:23;;;;;;;8.10;3.30;;;;;;;11.70;100.00;102516.16;5073594;28;20047;-74
2022/09/21 08:24:48;;;;;;;11.23;3.70;;;;;;;11.73;100.00;102518.47;5072157;28;20447;-72
2022/09/21 08:27:14;;;;;;;8.52;3.05;;;;;;;11.82;100.00;102520.03;5073168;28;20024;-73
2022/09/21 08:29:40;;;;;;;6.72;3.28;;;;;;;11.86;100.00;102521.31;5073706;28;20035;-73
2022/09/21 08:32:05;;;;;;;8.05;3.13;;;;;;;11.92;100.00;102525.13;5077972;28;20454;-71
2022/09/21 08:34:30;;;;;;;10.65;3.50;;;;;;;12.01;100.00;102525.88;5089681;28;20040;-73
2022/09/21 08:36:56;;;;;;;7.47;2.95;;;;;;;12.05;100.00;102528.00;5089308;28;20020;-73
2022/09/21 08:39:21;;;;;;;5.82;2.88;;;;;;;12.12;100.00;102521.81;5072082;28;20032;-73
2022/09/21 08:42:12;;;;;;;8.93;2.60;;;;;;;12.17;100.00;102525.63;5072879;28;20020;-73
2022/09/21 08:44:37;;;;;;;5.43;2.83;;;;;;;12.23;100.00;102526.72;5093085;28;20020;-73
2022/09/21 08:47:10;;;;;;;8.65;2.70;;;;;;;12.32;100.00;102527.41;5093521;28;20031;-71
2022/09/21 08:49:40;;;;;;;8.93;2.90;;;;;;;12.37;100.00;102533.94;5093248;28;20012;-72
2022/09/21 08:52:12;;;;;;;7.55;3.20;;;;;;;12.44;100.00;102527.72;5093506;28;20040;-71
2022/09/21 08:54:49;;;;;;;9.30;3.00;;;;;;;12.48;100.00;102532.56;5080936;28;20032;-72
2022/09/21 08:57:16;;;;;;;7.30;2.78;;;;;;;12.50;100.00;102522.38;5071536;28;20547;-72
2022/09/21 08:59:47;;;;;;;8.02;2.80;;;;;;;12.55;100.00;102529.91;5073207;28;20482;-79
2022/09/21 09:02:19;;;;;;;8.50;2.60;;;;;;;12.63;96.16;102537.06;5070580;28;20017;-75
2022/09/21 09:04:55;;;;;;;9.27;2.30;;;;;;;12.63;94.44;102529.75;5071536;28;20020;-74
2022/09/21 09:07:39;;;;;;;7.60;2.17;;;;;;;12.70;100.00;102524.38;5074595;28;20502;-70
2022/09/21 09:10:43;;;;;;;4.40;1.70;;;;;;;12.76;100.00;102537.19;5089696;28;20375;-72
2022/09/21 09:13:33;;;;;;;9.02;2.15;;;;;;;12.87;100.00;102533.91;5071136;28;20032;-72
2022/09/21 09:16:23;;;;;;;7.50;2.10;;;;;;;12.90;96.61;102535.38;5102529;28;20027;-72
2022/09/21 09:18:53;;;;;;;13.32;2.20;;;;;;;12.94;86.07;102536.66;5092861;28;20058;-72
2022/09/21 09:21:27;;;;;;;8.20;1.85;;;;;;;12.99;85.90;102544.22;5092631;28;20065;-72
2022/09/21 09:24:03;;;;;;;8.73;1.90;;;;;;;13.02;85.35;102533.78;5094395;28;20028;-72
2022/09/21 09:26:41;;;;;;;4.22;1.67;;;;;;;13.06;82.97;102539.69;5071552;28;20340;-72
2022/09/21 09:29:16;;;;;;;5.75;1.20;;;;;;;13.08;80.08;102537.59;5085835;28;20119;-72
2022/09/21 09:31:42;;;;;;;4.45;1.50;;;;;;;13.14;85.16;102547.66;5097523;28;20465;-72
2022/09/21 09:34:15;;;;;;;4.80;1.83;;;;;;;13.19;89.19;102542.44;5098564;28;20044;-72
2022/09/21 09:36:50;;;;;;;6.60;2.20;;;;;;;13.29;87.37;102540.19;5092512;28;20064;-73
2022/09/21 09:39:16;;;;;;;5.18;1.50;;;;;;;13.31;78.76;102540.00;5076153;28;20024;-76
2022/09/21 09:42:05;;;;;;;7.85;1.88;;;;;;;13.38;78.26;102540.06;5070681;28;20081;-79
2022/09/21 09:44:49;;;;;;;8.27;1.75;;;;;;;13.51;81.02;102542.00;5072326;28;20025;-72
2022/09/21 09:47:46;;;;;;;6.65;1.75;;;;;;;13.63;88.11;102537.63;5072496;28;20040;-72
2022/09/21 09:50:20;;;;;;;7.57;1.65;;;;;;;13.75;79.83;102541.47;5072470;28;20024;-73
2022/09/21 09:52:48;;;;;;;6.95;1.65;;;;;;;13.75;75.11;102543.34;5071818;28;20028;-71
2022/09/21 09:55:19;;;;;;;8.68;2.35;;;;;;;13.83;80.07;102540.44;5071887;28;20047;-71
2022/09/21 09:57:46;;;;;;;4.35;1.42;;;;;;;13.95;78.17;102540.66;5071973;28;20036;-71
2022/09/21 10:00:14;;;;;;;6.72;1.70;;;;;;;14.03;75.09;102535.03;5072288;28;20360;-74
2022/09/21 10:02:54;;;;;;;6.68;1.83;;;;;;;14.16;79.09;102536.91;5068335;28;20021;-71
2022/09/21 10:05:24;;;;;;;7.20;1.52;;;;;;;14.31;78.73;102536.72;5071993;28;20367;-73
2022/09/21 10:07:50;;;;;;;5.97;1.52;;;;;;;14.47;75.23;102535.47;5072422;28;20397;-71
2022/09/21 10:10:28;;;;;;;9.50;1.40;;;;;;;14.47;69.79;102538.22;5071783;28;20033;-72
2022/09/21 10:13:00;;;;;;;8.43;1.65;;;;;;;14.43;69.03;102535.06;5077455;28;20033;-71
2022/09/21 10:15:26;;;;;;;6.43;1.60;;;;;;;14.38;70.92;102531.28;5087760;28;20096;-72
2022/09/21 10:18:27;;;;;;;9.48;1.70;;;;;;;14.47;73.76;102533.59;5090323;28;20419;-70
2022/09/21 10:21:06;;;;;;;7.78;2.40;;;;;;;14.56;70.22;102534.22;5068142;28;20123;-77
2022/09/21 10:23:33;;;;;;;5.78;1.42;;;;;;;14.67;68.20;102539.06;5091718;28;20032;-73
2022/09/21 10:26:08;;;;;;;6.88;1.25;;;;;;;14.71;62.98;102537.59;5089722;28;20028;-72
2022/09/21 10:28:34;;;;;;;7.05;1.23;;;;;;;14.74;59.05;102530.06;5072183;28;20095;-73
2022/09/21 10:31:10;;;;;;;4.95;1.20;;;;;;;14.74;60.11;102525.44;5070506;28;20017;-74
2022/09/21 10:34:12;;;;;;;2.75;0.93;;;;;;;14.85;64.44;102524.75;5071696;28;20093;-74
2022/09/21 10:36:38;;;;;;;3.88;1.25;;;;;;;14.88;63.74;102527.06;5058078;28;20119;-71
2022/09/21 10:39:32;;;;;;;7.28;1.58;;;;;;;14.97;65.87;102524.97;5095897;28;20082;-72
2022/09/21 10:42:00;;;;;;;7.63;1.70;;;;;;;14.95;65.46;102521.63;5095198;28;20024;-72
2022/09/21 10:44:44;;;;;;;3.10;1.48;;;;;;;14.91;66.12;102525.81;5095903;28;20024;-72
2022/09/21 10:47:28;;;;;;;5.05;1.70;;;;;;;15.05;68.11;102515.72;5095854;28;20024;-72
2022/09/21 10:49:56;;;;;;;6.60;2.20;;;;;;;15.00;65.14;102521.81;5095245;28;20151;-72
2022/09/21 10:52:30;;;;;;;5.85;1.88;;;;;;;15.03;64.67;102513.19;5076645;28;20035;-72
2022/09/21 10:54:56;;;;;;;5.30;1.80;;;;;;;15.06;64.22;102512.75;5074701;28;20082;-72
2022/09/21 10:57:23;;;;;;;6.68;1.90;;;;;;;15.00;64.09;102513.63;5075375;28;20024;-72
2022/09/21 10:59:49;;;;;;;6.85;1.42;;;;;;;14.99;64.72;102516.56;5073808;28;20035;-72
2022/09/21 11:02:31;;;;;;;3.72;1.33;;;;;;;15.00;65.34;102520.97;5072593;28;20016;-72
2022/09/21 11:05:11;;;;;;;5.82;1.67;;;;;;;14.91;64.20;102520.34;5074599;28;20032;-72
2022/09/21 11:08:19;;;;;;;5.82;1.67;;;;;;;14.92;66.09;102516.59;5073491;28;20048;-72
2022/09/21 11:11:20;;;;;;;3.55;1.23;;;;;;;14.89;64.28;102522.47;5053764;28;20086;-72
2022/09/21 11:13:53;;;;;;;4.45;1.25;;;;;;;14.94;61.11;102519.09;5074635;28;20020;-72
2022/09/21 11:16:50;;;;;;;5.88;1.30;;;;;;;15.08;64.25;102515.28;5074703;28;20016;-72
2022/09/21 11:19:48;;;;;;;4.38;1.02;;;;;;;15.20;61.72;102510.00;5074027;28;20029;-72
2022/09/21 11:22:41;;;;;;;8.63;1.60;;;;;;;15.26;61.52;102513.75;5073432;28;20068;-72
2022/09/21 11:25:30;;;;;;;3.20;1.05;;;;;;;15.31;62.38;102514.78;5073308;28;20036;-72
2022/09/21 11:28:21;;;;;;;3.95;1.33;;;;;;;15.31;57.74;102512.06;5073251;28;20048;-73
2022/09/21 11:30:53;;;;;;;5.60;1.27;;;;;;;15.36;60.72;102505.97;5066562;28;20135;-72
2022/09/21 11:34:02;;;;;;;6.70;1.40;;;;;;;15.48;60.85;102508.84;5074389;28;20055;-73
2022/09/21 11:36:40;;;;;;;4.90;1.80;;;;;;;15.48;58.89;102506.13;5069635;28;20041;-72
2022/09/21 11:39:35;;;;;;;4.45;1.17;;;;;;;15.52;60.59;102510.91;5074677;28;20084;-73
2022/09/21 11:42:19;;;;;;;4.45;1.55;;;;;;;15.44;60.68;102502.97;5074036;28;20524;-73
2022/09/21 11:45:21;;;;;;;5.28;1.10;;;;;;;15.34;61.17;102498.00;5074292;28;20047;-72